sensor_id;sensor_type;location;lat;lon;timestamp;pressure;altitude;pressure_sealevel;temperature;humidity
65897;BME280;52677;50.898;10.854;2023-03-19T00:00:22;98178.75;;;8.21;100.00
65897;BME280;52677;50.898;10.854;2023-03-19T00:02:23;98174.75;;;8.18;100.00
65897;BME280;52677;50.898;10.854;2023-03-19T00:04:24;98170.47;;;8.21;100.00
65897;BME280;52677;50.898;10.854;2023-03-19T00:06:25;98167.72;;;8.21;100.00
65897;BME280;52677;50.898;10.854;2023-03-19T00:08:25;98174.75;;;8.18;100.00
65897;BME280;52677;50.898;10.854;2023-03-19T00:10:26;98179.41;;;8.14;100.00
65897;BME280;52677;50.898;10.854;2023-03-19T00:12:26;98174.66;;;8.11;100.00
65897;BME280;52677;50.898;10.854;2023-03-19T00:14:26;98165.63;;;8.14;100.00
65897;BME280;52677;50.898;10.854;2023-03-19T00:16:27;98175.19;;;8.20;100.00
65897;BME280;52677;50.898;10.854;2023-03-19T00:18:27;98174.44;;;8.23;100.00
65897;BME280;52677;50.898;10.854;2023-03-19T00:20:27;98174.06;;;8.25;100.00
65897;BME280;52677;50.898;10.854;2023-03-19T00:22:27;98169.31;;;8.22;100.00
65897;BME280;52677;50.898;10.854;2023-03-19T00:24:28;98176.03;;;8.24;100.00
65897;BME280;52677;50.898;10.854;2023-03-19T00:26:31;98175.22;;;8.24;100.00
65897;BME280;52677;50.898;10.854;2023-03-19T00:28:32;98183.13;;;8.25;100.00
65897;BME280;52677;50.898;10.854;2023-03-19T00:30:32;98180.00;;;8.27;100.00
65897;BME280;52677;50.898;10.854;2023-03-19T00:32:33;98180.78;;;8.27;100.00
65897;BME280;52677;50.898;10.854;2023-03-19T00:34:34;98181.13;;;8.22;100.00
65897;BME280;52677;50.898;10.854;2023-03-19T00:36:35;98191.72;;;8.20;100.00
65897;BME280;52677;50.898;10.854;2023-03-19T00:38:36;98192.06;;;8.18;100.00
65897;BME280;52677;50.898;10.854;2023-03-19T00:40:36;98188.47;;;8.14;100.00
65897;BME280;52677;50.898;10.854;2023-03-19T00:42:37;98194.41;;;8.16;100.00
65897;BME280;52677;50.898;10.854;2023-03-19T00:44:37;98193.19;;;8.14;100.00
65897;BME280;52677;50.898;10.854;2023-03-19T00:46:37;98188.06;;;8.12;100.00
65897;BME280;52677;50.898;10.854;2023-03-19T00:48:38;98193.56;;;8.12;100.00
65897;BME280;52677;50.898;10.854;2023-03-19T00:50:38;98192.44;;;8.17;100.00
65897;BME280;52677;50.898;10.854;2023-03-19T00:52:39;98195.88;;;8.10;100.00
65897;BME280;52677;50.898;10.854;2023-03-19T00:54:40;98199.44;;;8.11;100.00
65897;BME280;52677;50.898;10.854;2023-03-19T00:56:41;98205.00;;;8.14;100.00
65897;BME280;52677;50.898;10.854;2023-03-19T00:58:41;98191.59;;;8.13;100.00
65897;BME280;52677;50.898;10.854;2023-03-19T01:00:41;98196.00;;;8.17;100.00
65897;BME280;52677;50.898;10.854;2023-03-19T01:02:42;98191.66;;;8.16;100.00
65897;BME280;52677;50.898;10.854;2023-03-19T01:04:42;98193.72;;;8.23;100.00
65897;BME280;52677;50.898;10.854;2023-03-19T01:06:43;98195.31;;;8.24;100.00
65897;BME280;52677;50.898;10.854;2023-03-19T01:08:43;98195.31;;;8.24;100.00
65897;BME280;52677;50.898;10.854;2023-03-19T01:10:44;98197.69;;;8.26;100.00
65897;BME280;52677;50.898;10.854;2023-03-19T01:12:44;98197.69;;;8.26;100.00
65897;BME280;52677;50.898;10.854;2023-03-19T01:14:45;98210.75;;;8.29;100.00
65897;BME280;52677;50.898;10.854;2023-03-19T01:16:45;98202.13;;;8.30;100.00
65897;BME280;52677;50.898;10.854;2023-03-19T01:18:46;98204.91;;;8.34;100.00
65897;BME280;52677;50.898;10.854;2023-03-19T01:20:46;98195.59;;;8.38;100.00
65897;BME280;52677;50.898;10.854;2023-03-19T01:22:47;98207.41;;;8.39;100.00
65897;BME280;52677;50.898;10.854;2023-03-19T01:24:47;98207.31;;;8.35;100.00
65897;BME280;52677;50.898;10.854;2023-03-19T01:26:47;98206.84;;;8.30;100.00
65897;BME280;52677;50.898;10.854;2023-03-19T01:28:48;98211.19;;;8.31;100.00
65897;BME280;52677;50.898;10.854;2023-03-19T01:30:48;98213.13;;;8.30;100.00
65897;BME280;52677;50.898;10.854;2023-03-19T01:32:49;98211.97;;;8.31;100.00
65897;BME280;52677;50.898;10.854;2023-03-19T01:34:49;98208.03;;;8.32;100.00
65897;BME280;52677;50.898;10.854;2023-03-19T01:36:49;98210.44;;;8.34;100.00
65897;BME280;52677;50.898;10.854;2023-03-19T01:38:50;98211.59;;;8.33;100.00
65897;BME280;52677;50.898;10.854;2023-03-19T01:40:50;98214.81;;;8.35;100.00
65897;BME280;52677;50.898;10.854;2023-03-19T01:42:57;98222.25;;;8.34;100.00
65897;BME280;52677;50.898;10.854;2023-03-19T01:45:34;98211.69;;;8.36;100.00
65897;BME280;52677;50.898;10.854;2023-03-19T01:47:38;98199.41;;;8.34;100.00
65897;BME280;52677;50.898;10.854;2023-03-19T01:49:41;98212.75;;;8.32;100.00
65897;BME280;52677;50.898;10.854;2023-03-19T01:51:45;98196.22;;;8.32;100.00
65897;BME280;52677;50.898;10.854;2023-03-19T01:53:52;98206.88;;;8.33;100.00
65897;BME280;52677;50.898;10.854;2023-03-19T01:55:57;98195.44;;;8.31;100.00
65897;BME280;52677;50.898;10.854;2023-03-19T01:57:59;98193.84;;;8.30;100.00
65897;BME280;52677;50.898;10.854;2023-03-19T02:00:02;98197.31;;;8.27;100.00
65897;BME280;52677;50.898;10.854;2023-03-19T02:02:26;98200.03;;;8.24;100.00
65897;BME280;52677;50.898;10.854;2023-03-19T02:04:25;98200.00;;;8.20;100.00
65897;BME280;52677;50.898;10.854;2023-03-19T02:06:26;98200.78;;;8.21;100.00
65897;BME280;52677;50.898;10.854;2023-03-19T02:08:29;98206.53;;;8.12;100.00
65897;BME280;52677;50.898;10.854;2023-03-19T02:10:30;98219.03;;;8.06;100.00
65897;BME280;52677;50.898;10.854;2023-03-19T02:12:31;98215.84;;;8.04;100.00
65897;BME280;52677;50.898;10.854;2023-03-19T02:14:32;98207.88;;;7.99;100.00
65897;BME280;52677;50.898;10.854;2023-03-19T02:16:32;98210.22;;;7.97;100.00
65897;BME280;52677;50.898;10.854;2023-03-19T02:18:32;98211.38;;;7.96;100.00
65897;BME280;52677;50.898;10.854;2023-03-19T02:20:39;98203.47;;;7.94;100.00
65897;BME280;52677;50.898;10.854;2023-03-19T02:23:03;98204.22;;;7.91;100.00
65897;BME280;52677;50.898;10.854;2023-03-19T02:25:23;98205.38;;;7.90;100.00
65897;BME280;52677;50.898;10.854;2023-03-19T02:27:26;98194.66;;;7.85;100.00
65897;BME280;52677;50.898;10.854;2023-03-19T02:29:27;98191.84;;;7.81;100.00
65897;BME280;52677;50.898;10.854;2023-03-19T02:31:27;98190.31;;;7.84;100.00
65897;BME280;52677;50.898;10.854;2023-03-19T02:33:27;98198.69;;;7.91;100.00
65897;BME280;52677;50.898;10.854;2023-03-19T02:35:31;98191.91;;;7.85;100.00
65897;BME280;52677;50.898;10.854;2023-03-19T02:37:32;98194.53;;;7.78;100.00
65897;BME280;52677;50.898;10.854;2023-03-19T02:39:45;98203.53;;;7.75;100.00
65897;BME280;52677;50.898;10.854;2023-03-19T02:41:50;98206.09;;;7.64;100.00
65897;BME280;52677;50.898;10.854;2023-03-19T02:43:52;98213.41;;;7.56;100.00
65897;BME280;52677;50.898;10.854;2023-03-19T02:45:53;98200.31;;;7.50;100.00
65897;BME280;52677;50.898;10.854;2023-03-19T02:47:54;98198.28;;;7.47;100.00
65897;BME280;52677;50.898;10.854;2023-03-19T02:49:55;98204.16;;;7.45;100.00
65897;BME280;52677;50.898;10.854;2023-03-19T02:51:55;98210.31;;;7.39;100.00
65897;BME280;52677;50.898;10.854;2023-03-19T02:53:56;98210.19;;;7.31;100.00
65897;BME280;52677;50.898;10.854;2023-03-19T02:55:56;98210.81;;;7.25;100.00
65897;BME280;52677;50.898;10.854;2023-03-19T02:57:57;98204.53;;;7.24;100.00
65897;BME280;52677;50.898;10.854;2023-03-19T02:59:57;98212.56;;;7.14;100.00
65897;BME280;52677;50.898;10.854;2023-03-19T03:01:57;98211.53;;;7.02;100.00
65897;BME280;52677;50.898;10.854;2023-03-19T03:03:58;98215.28;;;6.94;100.00
65897;BME280;52677;50.898;10.854;2023-03-19T03:05:58;98212.47;;;6.91;100.00
65897;BME280;52677;50.898;10.854;2023-03-19T03:07:59;98215.44;;;6.82;100.00
65897;BME280;52677;50.898;10.854;2023-03-19T03:09:59;98217.66;;;6.76;100.00
65897;BME280;52677;50.898;10.854;2023-03-19T03:11:59;98219.53;;;6.72;100.00
65897;BME280;52677;50.898;10.854;2023-03-19T03:14:00;98210.25;;;6.61;100.00
65897;BME280;52677;50.898;10.854;2023-03-19T03:16:01;98211.75;;;6.59;100.00
65897;BME280;52677;50.898;10.854;2023-03-19T03:18:01;98212.56;;;6.59;100.00
65897;BME280;52677;50.898;10.854;2023-03-19T03:20:01;98221.97;;;6.58;100.00
65897;BME280;52677;50.898;10.854;2023-03-19T03:22:02;98209.81;;;6.59;100.00
65897;BME280;52677;50.898;10.854;2023-03-19T03:24:03;98213.34;;;6.60;100.00
65897;BME280;52677;50.898;10.854;2023-03-19T03:26:03;98211.69;;;6.55;100.00
65897;BME280;52677;50.898;10.854;2023-03-19T03:28:03;98219.22;;;6.58;100.00
65897;BME280;52677;50.898;10.854;2023-03-19T03:30:05;98215.50;;;6.51;100.00
65897;BME280;52677;50.898;10.854;2023-03-19T03:32:07;98213.47;;;6.47;100.00
65897;BME280;52677;50.898;10.854;2023-03-19T03:34:07;98215.78;;;6.45;100.00
65897;BME280;52677;50.898;10.854;2023-03-19T03:36:07;98220.47;;;6.45;100.00
65897;BME280;52677;50.898;10.854;2023-03-19T03:38:08;98221.56;;;6.40;100.00
65897;BME280;52677;50.898;10.854;2023-03-19T03:40:09;98220.03;;;6.43;100.00
65897;BME280;52677;50.898;10.854;2023-03-19T03:42:09;98225.09;;;6.41;100.00
65897;BME280;52677;50.898;10.854;2023-03-19T03:44:10;98228.56;;;6.38;100.00
65897;BME280;52677;50.898;10.854;2023-03-19T03:46:10;98228.56;;;6.38;100.00
65897;BME280;52677;50.898;10.854;2023-03-19T03:48:11;98237.50;;;6.35;100.00
65897;BME280;52677;50.898;10.854;2023-03-19T03:50:11;98234.69;;;6.31;100.00
65897;BME280;52677;50.898;10.854;2023-03-19T03:52:12;98239.81;;;6.33;100.00
65897;BME280;52677;50.898;10.854;2023-03-19T03:54:13;98236.81;;;6.38;100.00
65897;BME280;52677;50.898;10.854;2023-03-19T03:56:13;98246.34;;;6.44;100.00
65897;BME280;52677;50.898;10.854;2023-03-19T03:58:13;98247.94;;;6.45;100.00
65897;BME280;52677;50.898;10.854;2023-03-19T04:00:14;98238.22;;;6.47;100.00
65897;BME280;52677;50.898;10.854;2023-03-19T04:02:14;98237.06;;;6.48;100.00
65897;BME280;52677;50.898;10.854;2023-03-19T04:04:15;98235.03;;;6.45;100.00
65897;BME280;52677;50.898;10.854;2023-03-19T04:06:19;98236.97;;;6.45;100.00
65897;BME280;52677;50.898;10.854;2023-03-19T04:08:21;98229.88;;;6.44;100.00
65897;BME280;52677;50.898;10.854;2023-03-19T04:10:21;98226.44;;;6.47;100.00
65897;BME280;52677;50.898;10.854;2023-03-19T04:12:22;98219.34;;;6.46;100.00
65897;BME280;52677;50.898;10.854;2023-03-19T04:14:23;98224.38;;;6.44;100.00
65897;BME280;52677;50.898;10.854;2023-03-19T04:16:24;98227.84;;;6.41;100.00
65897;BME280;52677;50.898;10.854;2023-03-19T04:18:24;98232.97;;;6.42;100.00
65897;BME280;52677;50.898;10.854;2023-03-19T04:20:25;98236.81;;;6.38;100.00
65897;BME280;52677;50.898;10.854;2023-03-19T04:22:25;98238.31;;;6.35;100.00
65897;BME280;52677;50.898;10.854;2023-03-19T04:24:26;98238.66;;;6.34;100.00
65897;BME280;52677;50.898;10.854;2023-03-19T04:26:26;98239.81;;;6.33;100.00
65897;BME280;52677;50.898;10.854;2023-03-19T04:28:28;98234.69;;;6.31;100.00
65897;BME280;52677;50.898;10.854;2023-03-19T04:30:28;98244.94;;;6.34;100.00
65897;BME280;52677;50.898;10.854;2023-03-19T04:32:29;98250.44;;;6.34;100.00
65897;BME280;52677;50.898;10.854;2023-03-19T04:34:29;98249.22;;;6.32;100.00
65897;BME280;52677;50.898;10.854;2023-03-19T04:36:30;98248.94;;;6.37;100.00
65897;BME280;52677;50.898;10.854;2023-03-19T04:38:30;98256.47;;;6.40;100.00
65897;BME280;52677;50.898;10.854;2023-03-19T04:40:31;98244.78;;;6.43;100.00
65897;BME280;52677;50.898;10.854;2023-03-19T04:42:31;98247.63;;;6.46;100.00
65897;BME280;52677;50.898;10.854;2023-03-19T04:44:32;98239.88;;;6.52;100.00
65897;BME280;52677;50.898;10.854;2023-03-19T04:46:32;98241.56;;;6.57;100.00
65897;BME280;52677;50.898;10.854;2023-03-19T04:48:33;98239.97;;;6.56;100.00
65897;BME280;52677;50.898;10.854;2023-03-19T04:50:34;98235.19;;;6.53;100.00
65897;BME280;52677;50.898;10.854;2023-03-19T04:52:35;98242.63;;;6.52;100.00
65897;BME280;52677;50.898;10.854;2023-03-19T04:54:39;98237.06;;;6.48;100.00
65897;BME280;52677;50.898;10.854;2023-03-19T04:56:39;98239.81;;;6.48;100.00
65897;BME280;52677;50.898;10.854;2023-03-19T04:58:39;98241.75;;;6.48;100.00
65897;BME280;52677;50.898;10.854;2023-03-19T05:00:40;98234.31;;;6.48;100.00
65897;BME280;52677;50.898;10.854;2023-03-19T05:02:41;98230.34;;;6.46;100.00
65897;BME280;52677;50.898;10.854;2023-03-19T05:04:41;98232.28;;;6.45;100.00
65897;BME280;52677;50.898;10.854;2023-03-19T05:06:42;98238.03;;;6.40;100.00
65897;BME280;52677;50.898;10.854;2023-03-19T05:08:42;98241.16;;;6.39;100.00
65897;BME280;52677;50.898;10.854;2023-03-19T05:10:42;98245.94;;;6.42;100.00
65897;BME280;52677;50.898;10.854;2023-03-19T05:12:43;98249.03;;;6.40;100.00
65897;BME280;52677;50.898;10.854;2023-03-19T05:14:43;98247.69;;;6.34;100.00
65897;BME280;52677;50.898;10.854;2023-03-19T05:16:43;98249.13;;;6.28;100.00
65897;BME280;52677;50.898;10.854;2023-03-19T05:18:44;98251.06;;;6.28;100.00
65897;BME280;52677;50.898;10.854;2023-03-19T05:20:44;98246.38;;;6.28;100.00
65897;BME280;52677;50.898;10.854;2023-03-19T05:22:45;98237.88;;;6.33;100.00
65897;BME280;52677;50.898;10.854;2023-03-19T05:24:48;98246.53;;;6.35;100.00
65897;BME280;52677;50.898;10.854;2023-03-19T05:26:48;98247.81;;;6.38;100.00
65897;BME280;52677;50.898;10.854;2023-03-19T05:28:49;98259.13;;;6.36;100.00
65897;BME280;52677;50.898;10.854;2023-03-19T05:30:49;98254.78;;;6.35;100.00
65897;BME280;52677;50.898;10.854;2023-03-19T05:32:50;98261.81;;;6.33;100.00
65897;BME280;52677;50.898;10.854;2023-03-19T05:34:50;98256.91;;;6.26;100.00
65897;BME280;52677;50.898;10.854;2023-03-19T05:36:51;98260.38;;;6.23;100.00
65897;BME280;52677;50.898;10.854;2023-03-19T05:38:51;98262.69;;;6.21;100.00
65897;BME280;52677;50.898;10.854;2023-03-19T05:40:51;98261.06;;;6.20;100.00
65897;BME280;52677;50.898;10.854;2023-03-19T05:42:52;98259.13;;;6.20;100.00
65897;BME280;52677;50.898;10.854;2023-03-19T05:44:52;98256.66;;;6.15;100.00
65897;BME280;52677;50.898;10.854;2023-03-19T05:46:52;98269.50;;;6.11;100.00
65897;BME280;52677;50.898;10.854;2023-03-19T05:48:53;98272.97;;;6.08;100.00
65897;BME280;52677;50.898;10.854;2023-03-19T05:50:53;98264.53;;;6.01;100.00
65897;BME280;52677;50.898;10.854;2023-03-19T05:52:54;98276.31;;;6.02;100.00
65897;BME280;52677;50.898;10.854;2023-03-19T05:54:54;98278.25;;;6.01;100.00
65897;BME280;52677;50.898;10.854;2023-03-19T05:56:55;98270.75;;;5.98;100.00
65897;BME280;52677;50.898;10.854;2023-03-19T05:58:55;98274.97;;;5.96;100.00
65897;BME280;52677;50.898;10.854;2023-03-19T06:00:55;98280.94;;;5.98;100.00
65897;BME280;52677;50.898;10.854;2023-03-19T06:02:56;98274.88;;;5.92;100.00
65897;BME280;52677;50.898;10.854;2023-03-19T06:04:56;98281.84;;;5.89;100.00
65897;BME280;52677;50.898;10.854;2023-03-19T06:06:56;98281.84;;;5.89;100.00
65897;BME280;52677;50.898;10.854;2023-03-19T06:08:57;98283.00;;;5.88;100.00
65897;BME280;52677;50.898;10.854;2023-03-19T06:10:57;98279.47;;;5.88;100.00
65897;BME280;52677;50.898;10.854;2023-03-19T06:12:57;98282.22;;;5.88;100.00
65897;BME280;52677;50.898;10.854;2023-03-19T06:14:57;98283.47;;;5.90;100.00
65897;BME280;52677;50.898;10.854;2023-03-19T06:16:58;98286.56;;;5.89;100.00
65897;BME280;52677;50.898;10.854;2023-03-19T06:18:58;98289.84;;;5.95;100.00
65897;BME280;52677;50.898;10.854;2023-03-19T06:20:59;98290.75;;;5.99;100.00
65897;BME280;52677;50.898;10.854;2023-03-19T06:22:59;98280.94;;;5.98;100.00
65897;BME280;52677;50.898;10.854;2023-03-19T06:24:59;98285.34;;;6.02;100.00
65897;BME280;52677;50.898;10.854;2023-03-19T06:27:00;98292.53;;;6.07;100.00
65897;BME280;52677;50.898;10.854;2023-03-19T06:29:00;98289.09;;;6.10;100.00
65897;BME280;52677;50.898;10.854;2023-03-19T06:31:00;98295.91;;;6.16;100.00
65897;BME280;52677;50.898;10.854;2023-03-19T06:33:01;98299.66;;;6.24;100.00
65897;BME280;52677;50.898;10.854;2023-03-19T06:35:02;98298.25;;;6.30;100.00
65897;BME280;52677;50.898;10.854;2023-03-19T06:37:02;98296.81;;;6.36;100.00
65897;BME280;52677;50.898;10.854;2023-03-19T06:39:03;98298.94;;;6.42;100.00
65897;BME280;52677;50.898;10.854;2023-03-19T06:41:03;98304.97;;;6.48;100.00
65897;BME280;52677;50.898;10.854;2023-03-19T06:43:04;98309.38;;;6.53;100.00
65897;BME280;52677;50.898;10.854;2023-03-19T06:45:05;98318.97;;;6.59;100.00
65897;BME280;52677;50.898;10.854;2023-03-19T06:47:06;98311.53;;;6.59;100.00
65897;BME280;52677;50.898;10.854;2023-03-19T06:49:07;98320.31;;;6.65;100.00
65897;BME280;52677;50.898;10.854;2023-03-19T06:51:07;98318.34;;;6.65;100.00
65897;BME280;52677;50.898;10.854;2023-03-19T06:53:08;98326.59;;;6.65;100.00
65897;BME280;52677;50.898;10.854;2023-03-19T06:55:09;98321.97;;;6.69;100.00
65897;BME280;52677;50.898;10.854;2023-03-19T06:57:10;98322.06;;;6.73;100.00
65897;BME280;52677;50.898;10.854;2023-03-19T06:59:11;98330.50;;;6.80;100.00
65897;BME280;52677;50.898;10.854;2023-03-19T07:01:12;98325.88;;;6.84;100.00
65897;BME280;52677;50.898;10.854;2023-03-19T07:03:12;98331.91;;;6.90;100.00
65897;BME280;52677;50.898;10.854;2023-03-19T07:05:13;98327.25;;;6.94;100.00
65897;BME280;52677;50.898;10.854;2023-03-19T07:07:13;98334.88;;;7.00;100.00
65897;BME280;52677;50.898;10.854;2023-03-19T07:09:13;98338.97;;;7.07;100.00
65897;BME280;52677;50.898;10.854;2023-03-19T07:11:14;98344.22;;;7.12;100.00
65897;BME280;52677;50.898;10.854;2023-03-19T07:13:15;98345.50;;;7.18;100.00
65897;BME280;52677;50.898;10.854;2023-03-19T07:15:15;98334.59;;;7.21;100.00
65897;BME280;52677;50.898;10.854;2023-03-19T07:17:16;98339.44;;;7.28;100.00
65897;BME280;52677;50.898;10.854;2023-03-19T07:19:17;98338.81;;;7.35;100.00
65897;BME280;52677;50.898;10.854;2023-03-19T07:21:17;98348.00;;;7.42;100.00
65897;BME280;52677;50.898;10.854;2023-03-19T07:23:18;98335.50;;;7.45;100.00
65897;BME280;52677;50.898;10.854;2023-03-19T07:25:18;98337.22;;;7.53;100.00
65897;BME280;52677;50.898;10.854;2023-03-19T07:27:19;98339.28;;;7.56;100.00
65897;BME280;52677;50.898;10.854;2023-03-19T07:29:20;98341.81;;;7.65;100.00
65897;BME280;52677;50.898;10.854;2023-03-19T07:31:20;98344.28;;;7.70;100.00
65897;BME280;52677;50.898;10.854;2023-03-19T07:33:21;98349.06;;;7.73;100.00
65897;BME280;52677;50.898;10.854;2023-03-19T07:35:21;98344.41;;;7.77;100.00
65897;BME280;52677;50.898;10.854;2023-03-19T07:37:21;98350.06;;;7.84;100.00
65897;BME280;52677;50.898;10.854;2023-03-19T07:39:22;98351.75;;;7.88;100.00
65897;BME280;52677;50.898;10.854;2023-03-19T07:41:22;98348.63;;;7.90;100.00
65897;BME280;52677;50.898;10.854;2023-03-19T07:43:23;98352.69;;;7.96;100.00
65897;BME280;52677;50.898;10.854;2023-03-19T07:45:23;98357.88;;;8.01;100.00
65897;BME280;52677;50.898;10.854;2023-03-19T07:47:23;98360.41;;;8.10;100.00
65897;BME280;52677;50.898;10.854;2023-03-19T07:49:24;98366.84;;;8.17;100.00
65897;BME280;52677;50.898;10.854;2023-03-19T07:51:24;98359.38;;;8.18;100.00
65897;BME280;52677;50.898;10.854;2023-03-19T07:53:25;98363.38;;;8.21;100.00
65897;BME280;52677;50.898;10.854;2023-03-19T07:55:26;98361.09;;;8.26;100.00
65897;BME280;52677;50.898;10.854;2023-03-19T07:57:26;98362.69;;;8.27;100.00
65897;BME280;52677;50.898;10.854;2023-03-19T07:59:27;98366.75;;;8.33;100.00
65897;BME280;52677;50.898;10.854;2023-03-19T08:01:27;98358.59;;;8.37;100.00
65897;BME280;52677;50.898;10.854;2023-03-19T08:03:27;98366.50;;;8.38;100.00
65897;BME280;52677;50.898;10.854;2023-03-19T08:05:28;98358.72;;;8.44;100.00
65897;BME280;52677;50.898;10.854;2023-03-19T08:07:28;98352.84;;;8.46;100.00
65897;BME280;52677;50.898;10.854;2023-03-19T08:09:29;98358.84;;;8.51;100.00
65897;BME280;52677;50.898;10.854;2023-03-19T08:11:29;98355.78;;;8.56;100.00
65897;BME280;52677;50.898;10.854;2023-03-19T08:13:30;98359.75;;;8.59;100.00
65897;BME280;52677;50.898;10.854;2023-03-19T08:15:30;98365.34;;;8.62;100.00
65897;BME280;52677;50.898;10.854;2023-03-19T08:17:31;98368.97;;;8.66;100.00
65897;BME280;52677;50.898;10.854;2023-03-19T08:19:37;98365.09;;;8.71;100.00
65897;BME280;52677;50.898;10.854;2023-03-19T08:21:37;98364.78;;;8.76;100.00
65897;BME280;52677;50.898;10.854;2023-03-19T08:23:38;98366.03;;;8.79;100.00
65897;BME280;52677;50.898;10.854;2023-03-19T08:25:38;98372.38;;;8.83;100.00
65897;BME280;52677;50.898;10.854;2023-03-19T08:27:38;98373.19;;;8.83;100.00
65897;BME280;52677;50.898;10.854;2023-03-19T08:29:39;98371.28;;;8.87;100.00
65897;BME280;52677;50.898;10.854;2023-03-19T08:31:39;98374.47;;;8.89;100.00
65897;BME280;52677;50.898;10.854;2023-03-19T08:33:40;98371.34;;;8.91;100.00
65897;BME280;52677;50.898;10.854;2023-03-19T08:35:41;98384.03;;;8.95;100.00
65897;BME280;52677;50.898;10.854;2023-03-19T08:37:41;98378.19;;;9.00;100.00
65897;BME280;52677;50.898;10.854;2023-03-19T08:39:41;98379.09;;;9.08;100.00
65897;BME280;52677;50.898;10.854;2023-03-19T08:41:42;98386.69;;;9.15;100.00
65897;BME280;52677;50.898;10.854;2023-03-19T08:43:42;98377.78;;;9.25;100.00
65897;BME280;52677;50.898;10.854;2023-03-19T08:45:42;98389.72;;;9.33;100.00
65897;BME280;52677;50.898;10.854;2023-03-19T08:47:43;98381.19;;;9.41;100.00
65897;BME280;52677;50.898;10.854;2023-03-19T08:49:43;98388.78;;;9.48;100.00
65897;BME280;52677;50.898;10.854;2023-03-19T08:51:47;98386.91;;;9.55;100.00
65897;BME280;52677;50.898;10.854;2023-03-19T08:53:47;98385.41;;;9.62;100.00
65897;BME280;52677;50.898;10.854;2023-03-19T08:55:52;98391.84;;;9.69;100.00
65897;BME280;52677;50.898;10.854;2023-03-19T08:57:52;98393.53;;;9.77;100.00
65897;BME280;52677;50.898;10.854;2023-03-19T08:59:53;98390.84;;;9.84;100.00
65897;BME280;52677;50.898;10.854;2023-03-19T09:01:53;98389.34;;;9.91;100.00
65897;BME280;52677;50.898;10.854;2023-03-19T09:03:53;98389.06;;;9.99;100.00
65897;BME280;52677;50.898;10.854;2023-03-19T09:05:57;98389.56;;;10.08;100.00
65897;BME280;52677;50.898;10.854;2023-03-19T09:07:58;98399.91;;;10.15;100.00
65897;BME280;52677;50.898;10.854;2023-03-19T09:09:58;98401.56;;;10.20;100.00
65897;BME280;52677;50.898;10.854;2023-03-19T09:11:59;98403.66;;;10.26;100.00
65897;BME280;52677;50.898;10.854;2023-03-19T09:13:59;98402.91;;;10.33;100.00
65897;BME280;52677;50.898;10.854;2023-03-19T09:16:00;98401.78;;;10.37;100.00
65897;BME280;52677;50.898;10.854;2023-03-19T09:18:00;98405.34;;;10.38;100.00
65897;BME280;52677;50.898;10.854;2023-03-19T09:20:01;98401.44;;;10.43;100.00
65897;BME280;52677;50.898;10.854;2023-03-19T09:22:03;98399.97;;;10.52;99.62
65897;BME280;52677;50.898;10.854;2023-03-19T09:24:03;98407.50;;;10.55;98.72
65897;BME280;52677;50.898;10.854;2023-03-19T09:26:04;98402.06;;;10.66;97.72
65897;BME280;52677;50.898;10.854;2023-03-19T09:28:04;98404.16;;;10.76;97.83
65897;BME280;52677;50.898;10.854;2023-03-19T09:30:05;98414.00;;;10.74;97.31
65897;BME280;52677;50.898;10.854;2023-03-19T09:32:08;98412.88;;;10.78;95.95
65897;BME280;52677;50.898;10.854;2023-03-19T09:34:09;98418.09;;;10.87;96.42
65897;BME280;52677;50.898;10.854;2023-03-19T09:36:09;98413.75;;;10.86;96.49
65897;BME280;52677;50.898;10.854;2023-03-19T09:38:10;98415.03;;;10.99;94.62
65897;BME280;52677;50.898;10.854;2023-03-19T09:45:17;98424.19;;;11.07;96.10
65897;BME280;52677;50.898;10.854;2023-03-19T09:47:32;98416.59;;;11.00;96.42
65897;BME280;52677;50.898;10.854;2023-03-19T09:49:37;98418.22;;;11.01;95.28
65897;BME280;52677;50.898;10.854;2023-03-19T09:51:43;98421.78;;;11.02;96.96
65897;BME280;52677;50.898;10.854;2023-03-19T09:53:55;98418.66;;;11.07;96.51
65897;BME280;52677;50.898;10.854;2023-03-19T09:55:57;98419.88;;;11.09;95.75
65897;BME280;52677;50.898;10.854;2023-03-19T09:58:00;98421.88;;;11.12;96.93
65897;BME280;52677;50.898;10.854;2023-03-19T10:00:10;98413.97;;;11.11;97.41
65897;BME280;52677;50.898;10.854;2023-03-19T10:02:42;98410.00;;;11.12;96.99
65897;BME280;52677;50.898;10.854;2023-03-19T10:06:46;98401.31;;;11.17;98.05
65897;BME280;52677;50.898;10.854;2023-03-19T10:14:16;98399.41;;;11.24;98.63
65897;BME280;52677;50.898;10.854;2023-03-19T10:16:12;98407.38;;;11.30;98.59
65897;BME280;52677;50.898;10.854;2023-03-19T10:18:21;98418.84;;;11.32;98.66
65897;BME280;52677;50.898;10.854;2023-03-19T10:22:53;98418.91;;;11.39;98.66
65897;BME280;52677;50.898;10.854;2023-03-19T10:24:57;98411.00;;;11.41;97.20
65897;BME280;52677;50.898;10.854;2023-03-19T10:27:08;98409.34;;;11.29;99.85
65897;BME280;52677;50.898;10.854;2023-03-19T10:29:15;98419.25;;;11.30;100.00
65897;BME280;52677;50.898;10.854;2023-03-19T10:33:35;98421.88;;;11.16;100.00
65897;BME280;52677;50.898;10.854;2023-03-19T10:35:43;98426.25;;;11.17;100.00
65897;BME280;52677;50.898;10.854;2023-03-19T10:37:44;98427.03;;;11.14;100.00
65897;BME280;52677;50.898;10.854;2023-03-19T10:39:47;98426.94;;;11.03;100.00
65897;BME280;52677;50.898;10.854;2023-03-19T10:41:49;98428.50;;;11.01;100.00
65897;BME280;52677;50.898;10.854;2023-03-19T10:43:57;98432.81;;;10.98;100.00
65897;BME280;52677;50.898;10.854;2023-03-19T10:45:59;98422.91;;;10.93;100.00
65897;BME280;52677;50.898;10.854;2023-03-19T10:48:01;98427.66;;;10.93;100.00
65897;BME280;52677;50.898;10.854;2023-03-19T10:50:02;98439.19;;;11.02;100.00
65897;BME280;52677;50.898;10.854;2023-03-19T10:52:04;98436.84;;;11.04;100.00